createdAt,value
2018-11-01T00:01:50.477Z,5.10
2018-11-01T00:04:19.015Z,5.10
2018-11-01T00:06:47.528Z,5.10
2018-11-01T00:09:16.064Z,5.10
2018-11-01T00:11:44.563Z,5.00
2018-11-01T00:14:13.106Z,5.00
2018-11-01T00:16:41.631Z,5.00
2018-11-01T00:19:10.158Z,5.00
2018-11-01T00:21:38.659Z,5.00
2018-11-01T00:24:07.176Z,5.00
2018-11-01T00:26:35.746Z,5.00
2018-11-01T00:29:04.490Z,5.00
2018-11-01T00:31:33.028Z,5.00
2018-11-01T00:34:01.532Z,4.90
2018-11-01T00:36:30.066Z,4.80
2018-11-01T00:38:58.555Z,4.80
2018-11-01T00:41:27.055Z,4.80
2018-11-01T00:43:55.553Z,4.80
2018-11-01T00:46:24.096Z,4.80
2018-11-01T00:48:52.561Z,4.80
2018-11-01T00:51:21.104Z,4.70
2018-11-01T00:53:49.590Z,4.70
2018-11-01T00:56:18.092Z,4.60
2018-11-01T00:58:46.567Z,4.60
2018-11-01T01:01:15.086Z,4.60
2018-11-01T01:03:43.575Z,4.60
2018-11-01T01:06:12.106Z,4.70
2018-11-01T01:08:40.608Z,4.80
2018-11-01T01:11:09.102Z,4.90
2018-11-01T01:13:37.563Z,4.90
2018-11-01T01:16:06.415Z,4.90
2018-11-01T01:18:35.006Z,4.90
2018-11-01T01:21:03.508Z,4.90
2018-11-01T01:23:32.034Z,5.00
2018-11-01T01:26:00.523Z,5.00
2018-11-01T01:28:29.061Z,5.00
2018-11-01T01:30:57.602Z,5.10
2018-11-01T01:33:26.078Z,5.10
2018-11-01T01:35:54.595Z,5.20
2018-11-01T01:38:23.094Z,5.20
2018-11-01T01:40:51.622Z,5.30
2018-11-01T01:43:20.164Z,5.30
2018-11-01T01:45:48.717Z,5.30
2018-11-01T01:48:17.215Z,5.30
2018-11-01T01:50:45.844Z,5.30
2018-11-01T01:53:14.296Z,5.40
2018-11-01T01:55:42.870Z,5.30
2018-11-01T01:58:11.386Z,5.20
2018-11-01T02:00:39.914Z,5.10
2018-11-01T02:03:08.432Z,5.10
2018-11-01T02:05:36.933Z,5.10
2018-11-01T02:08:05.727Z,5.00
2018-11-01T02:10:34.196Z,5.00
2018-11-01T02:13:02.698Z,5.10
2018-11-01T02:15:31.230Z,5.20
2018-11-01T02:17:59.784Z,5.30
2018-11-01T02:20:28.278Z,5.30
2018-11-01T02:22:56.777Z,5.40
2018-11-01T02:25:25.273Z,5.30
2018-11-01T02:27:59.046Z,5.20
2018-11-01T02:30:27.548Z,5.00
2018-11-01T02:32:56.080Z,4.90
2018-11-01T02:35:24.608Z,4.80
2018-11-01T02:37:53.195Z,4.80
2018-11-01T02:40:21.659Z,4.90
2018-11-01T02:42:50.195Z,4.90
2018-11-01T02:45:18.697Z,4.90
2018-11-01T02:47:47.259Z,4.80
2018-11-01T02:50:15.809Z,4.80
2018-11-01T02:52:44.329Z,4.80
2018-11-01T02:55:12.805Z,4.80
2018-11-01T02:57:41.338Z,4.80
2018-11-01T03:00:11.107Z,4.90
2018-11-01T03:02:39.657Z,4.80
2018-11-01T03:05:08.916Z,4.60
2018-11-01T03:07:37.396Z,4.60
2018-11-01T03:10:06.946Z,4.60
2018-11-01T03:12:35.493Z,4.60
2018-11-01T03:15:04.077Z,4.70
2018-11-01T03:17:32.599Z,4.70
2018-11-01T03:20:01.114Z,4.70
2018-11-01T03:22:29.610Z,4.70
2018-11-01T03:24:58.087Z,4.50
2018-11-01T03:27:26.614Z,4.40
2018-11-01T03:29:55.126Z,4.30
2018-11-01T03:32:23.638Z,4.10
2018-11-01T03:34:52.092Z,4.10
2018-11-01T03:37:20.610Z,4.00
2018-11-01T03:39:49.114Z,4.00
2018-11-01T03:42:17.563Z,4.00
2018-11-01T03:44:46.090Z,4.00
2018-11-01T03:47:14.538Z,4.10
2018-11-01T03:49:43.013Z,4.10
2018-11-01T03:52:11.471Z,4.00
2018-11-01T03:54:39.968Z,3.90
2018-11-01T03:57:08.423Z,3.80
2018-11-01T03:59:36.902Z,3.80
2018-11-01T04:02:05.774Z,3.90
2018-11-01T04:04:34.240Z,4.00
2018-11-01T04:07:02.709Z,4.00
2018-11-01T04:09:31.199Z,4.00
2018-11-01T04:11:59.683Z,4.00
2018-11-01T04:14:28.174Z,3.90
2018-11-01T04:16:56.689Z,3.90
2018-11-01T04:19:25.153Z,3.90
2018-11-01T04:22:10.032Z,3.80
2018-11-01T04:24:38.627Z,3.80
2018-11-01T04:27:07.090Z,3.80
2018-11-01T04:29:36.546Z,3.80
2018-11-01T04:32:05.542Z,3.80
2018-11-01T04:34:33.998Z,3.80
2018-11-01T04:37:02.466Z,3.70
2018-11-01T04:39:30.975Z,3.70
2018-11-01T04:41:59.453Z,3.80
2018-11-01T04:44:27.915Z,3.90
2018-11-01T04:46:56.405Z,4.00
2018-11-01T04:49:24.936Z,4.00
2018-11-01T04:51:53.370Z,4.00
2018-11-01T04:54:21.867Z,4.10
2018-11-01T04:56:50.354Z,4.00
2018-11-01T04:59:18.787Z,4.00
2018-11-01T05:01:47.250Z,4.00
2018-11-01T05:04:16.076Z,3.90
2018-11-01T05:06:44.613Z,3.90
2018-11-01T05:09:13.067Z,3.80
2018-11-01T05:11:41.535Z,3.70
2018-11-01T05:14:10.603Z,3.70
2018-11-01T05:16:39.077Z,3.80
2018-11-01T05:19:07.517Z,3.90
2018-11-01T05:21:36.018Z,3.90
2018-11-01T05:24:04.554Z,4.00
2018-11-01T05:26:33.766Z,4.00
2018-11-01T05:29:02.390Z,4.00
2018-11-01T05:31:31.096Z,4.00
2018-11-01T05:34:00.010Z,4.00
2018-11-01T05:36:28.475Z,3.90
2018-11-01T05:38:56.934Z,3.90
2018-11-01T05:41:25.406Z,3.90
2018-11-01T05:43:53.898Z,3.90
2018-11-01T05:46:22.359Z,3.90
2018-11-01T05:48:50.799Z,3.90
2018-11-01T05:51:20.114Z,3.90
2018-11-01T05:53:48.543Z,3.90
2018-11-01T05:56:17.000Z,3.80
2018-11-01T05:58:45.439Z,3.80
2018-11-01T06:01:14.679Z,3.80
2018-11-01T06:03:43.250Z,3.90
2018-11-01T06:06:11.714Z,3.90
2018-11-01T06:08:42.488Z,3.90
2018-11-01T06:11:10.963Z,3.90
2018-11-01T06:13:39.430Z,3.90
2018-11-01T06:16:07.917Z,3.90
2018-11-01T06:18:36.494Z,3.90
2018-11-01T06:21:05.191Z,3.90
2018-11-01T06:23:33.668Z,3.90
2018-11-01T06:26:02.200Z,3.90
2018-11-01T06:28:30.733Z,4.00
2018-11-01T06:30:59.227Z,4.00
2018-11-01T06:33:27.719Z,3.90
2018-11-01T06:35:58.380Z,3.90
2018-11-01T06:38:26.910Z,3.90
2018-11-01T06:40:55.394Z,3.90
2018-11-01T06:43:23.887Z,3.90
2018-11-01T06:45:52.400Z,3.80
2018-11-01T06:48:20.962Z,3.90
2018-11-01T06:50:49.482Z,4.00
2018-11-01T06:53:18.144Z,4.10
2018-11-01T06:55:46.647Z,4.00
2018-11-01T06:58:15.284Z,4.00
2018-11-01T07:00:44.127Z,4.00
2018-11-01T07:03:12.705Z,4.00
2018-11-01T07:05:41.218Z,4.00
2018-11-01T07:08:09.669Z,4.10
2018-11-01T07:10:38.146Z,4.20
2018-11-01T07:13:06.614Z,4.20
2018-11-01T07:15:35.079Z,4.10
2018-11-01T07:18:03.567Z,4.20
2018-11-01T07:20:32.055Z,4.20
2018-11-01T07:23:00.573Z,4.30
2018-11-01T07:25:29.206Z,4.30
2018-11-01T07:27:57.502Z,4.30
2018-11-01T07:30:25.959Z,4.30
2018-11-01T07:32:54.482Z,4.30
2018-11-01T07:35:22.977Z,4.20
2018-11-01T07:37:51.439Z,4.10
2018-11-01T07:40:20.102Z,4.10
2018-11-01T07:42:48.586Z,4.00
2018-11-01T07:45:17.154Z,4.10
2018-11-01T07:47:45.998Z,4.00
2018-11-01T07:50:14.756Z,4.10
2018-11-01T07:52:43.294Z,4.20
2018-11-01T07:55:14.718Z,4.30
2018-11-01T07:57:43.175Z,4.30
2018-11-01T08:00:13.869Z,4.40
2018-11-01T08:02:43.106Z,4.50
2018-11-01T08:05:12.164Z,4.50
2018-11-01T08:07:41.029Z,4.50
2018-11-01T08:10:11.825Z,4.60
2018-11-01T08:12:40.450Z,4.70
2018-11-01T08:15:11.413Z,4.70
2018-11-01T08:17:39.977Z,4.80
2018-11-01T08:20:09.828Z,4.80
2018-11-01T08:22:38.104Z,4.80
2018-11-01T08:25:06.641Z,4.80
2018-11-01T08:27:35.066Z,4.70
2018-11-01T08:30:03.563Z,4.60
2018-11-01T08:32:32.019Z,4.70
2018-11-01T08:35:00.450Z,4.70
2018-11-01T08:37:28.877Z,4.80
2018-11-01T08:39:57.350Z,4.90
2018-11-01T08:42:25.790Z,5.00
2018-11-01T08:44:54.238Z,5.10
2018-11-01T08:47:22.648Z,5.10
2018-11-01T08:49:51.102Z,5.10
2018-11-01T08:52:19.525Z,5.10
2018-11-01T08:54:48.093Z,5.20
2018-11-01T08:57:16.513Z,5.20
2018-11-01T08:59:45.043Z,5.30
2018-11-01T09:02:13.463Z,5.30
2018-11-01T09:04:41.904Z,5.30
2018-11-01T09:07:10.342Z,5.40
2018-11-01T09:09:38.772Z,5.50
2018-11-01T09:12:07.286Z,5.50
2018-11-01T09:14:35.801Z,5.60
2018-11-01T09:17:04.299Z,5.70
2018-11-01T09:19:32.820Z,5.70
2018-11-01T09:22:01.324Z,5.70
2018-11-01T09:24:29.829Z,5.70
2018-11-01T09:26:58.424Z,5.60
2018-11-01T09:29:26.843Z,5.60
2018-11-01T09:31:55.301Z,5.60
2018-11-01T09:34:23.740Z,5.60
2018-11-01T09:36:52.163Z,5.70
2018-11-01T09:39:20.596Z,5.70
2018-11-01T09:41:49.016Z,5.90
2018-11-01T09:44:17.461Z,5.90
2018-11-01T09:46:46.095Z,6.00
2018-11-01T09:49:14.342Z,6.00
2018-11-01T09:51:42.789Z,6.10
2018-11-01T09:54:11.227Z,6.20
2018-11-01T09:56:39.669Z,6.30
2018-11-01T09:59:08.365Z,6.30
2018-11-01T10:01:36.806Z,6.50
2018-11-01T10:04:05.225Z,6.70
2018-11-01T10:06:33.665Z,6.70
2018-11-01T10:09:02.081Z,6.70
2018-11-01T10:11:30.526Z,6.90
2018-11-01T10:13:58.946Z,7.00
2018-11-01T10:16:27.567Z,7.00
2018-11-01T10:18:55.838Z,7.00
2018-11-01T10:21:24.298Z,7.00
2018-11-01T10:23:52.692Z,7.10
2018-11-01T10:26:21.222Z,7.10
2018-11-01T10:28:49.665Z,7.20
2018-11-01T10:31:18.138Z,7.30
2018-11-01T10:33:46.557Z,7.30
2018-11-01T10:36:14.974Z,7.30
2018-11-01T10:38:43.379Z,7.40
2018-11-01T10:41:11.810Z,7.40
2018-11-01T10:43:40.210Z,7.30
2018-11-01T10:46:08.651Z,7.30
2018-11-01T10:48:37.061Z,7.40
2018-11-01T10:51:05.862Z,7.50
2018-11-01T10:53:34.395Z,7.60
2018-11-01T10:56:03.005Z,7.70
2018-11-01T10:58:31.736Z,7.80
2018-11-01T11:01:05.317Z,7.80
2018-11-01T11:03:33.717Z,7.70
2018-11-01T11:06:02.142Z,7.60
2018-11-01T11:08:30.538Z,7.60
2018-11-01T11:10:58.956Z,7.60
2018-11-01T11:13:27.406Z,7.60
2018-11-01T11:15:55.874Z,7.70
2018-11-01T11:18:24.298Z,7.80
2018-11-01T11:20:53.077Z,7.70
2018-11-01T11:23:21.153Z,7.70
2018-11-01T11:25:49.584Z,7.80
2018-11-01T11:28:18.018Z,7.80
2018-11-01T11:30:46.494Z,7.80
2018-11-01T11:33:14.910Z,7.70
2018-11-01T11:35:43.398Z,7.80
2018-11-01T11:38:11.785Z,7.80
2018-11-01T11:40:40.197Z,7.70
2018-11-01T11:43:08.642Z,7.80
2018-11-01T11:45:37.044Z,7.70
2018-11-01T11:48:05.927Z,7.70
2018-11-01T11:50:34.349Z,7.60
2018-11-01T11:53:02.789Z,7.60
2018-11-01T11:55:31.209Z,7.50
2018-11-01T11:57:59.662Z,7.50
2018-11-01T12:00:28.096Z,7.40
2018-11-01T12:02:56.545Z,7.50
2018-11-01T12:05:25.010Z,7.60
2018-11-01T12:07:53.422Z,7.60
2018-11-01T12:10:21.869Z,7.70
2018-11-01T12:12:50.300Z,7.70
2018-11-01T12:15:18.741Z,7.80
2018-11-01T12:17:47.177Z,7.80
2018-11-01T12:20:15.613Z,7.90
2018-11-01T12:22:44.077Z,8.00
2018-11-01T12:25:12.545Z,8.00
2018-11-01T12:27:40.955Z,8.00
2018-11-01T12:30:10.727Z,8.10
2018-11-01T12:32:39.169Z,8.20
2018-11-01T12:35:08.455Z,8.20
2018-11-01T12:37:36.944Z,8.20
2018-11-01T12:40:06.729Z,8.30
2018-11-01T12:42:35.206Z,8.30
2018-11-01T12:45:03.838Z,8.20
2018-11-01T12:47:32.252Z,8.30
2018-11-01T12:50:00.800Z,8.40
2018-11-01T12:52:29.117Z,8.50
2018-11-01T12:54:57.561Z,8.60
2018-11-01T12:57:26.049Z,9.10
2018-11-01T12:59:54.465Z,9.70
2018-11-01T13:02:25.168Z,9.90
2018-11-01T13:04:53.741Z,10.30
2018-11-01T13:07:22.278Z,10.00
2018-11-01T13:09:50.776Z,9.80
2018-11-01T13:12:19.190Z,9.60
2018-11-01T13:14:47.669Z,9.50
2018-11-01T13:17:16.089Z,9.50
2018-11-01T13:19:44.546Z,9.30
2018-11-01T13:22:12.961Z,9.20
2018-11-01T13:24:41.415Z,9.40
2018-11-01T13:27:09.842Z,11.00
2018-11-01T13:29:38.283Z,12.30
2018-11-01T13:32:06.733Z,12.80
2018-11-01T13:34:35.199Z,13.00
2018-11-01T13:37:03.633Z,13.10
2018-11-01T13:39:32.155Z,13.80
2018-11-01T13:42:00.474Z,14.00
2018-11-01T13:44:29.001Z,14.00
2018-11-01T13:46:57.442Z,13.30
2018-11-01T13:49:25.863Z,13.60
2018-11-01T13:51:54.296Z,15.20
2018-11-01T13:54:22.748Z,13.70
2018-11-01T13:56:51.169Z,13.10
2018-11-01T13:59:19.605Z,14.70
2018-11-01T14:01:48.077Z,15.80
2018-11-01T14:04:16.470Z,14.60
2018-11-01T14:06:44.877Z,13.60
2018-11-01T14:09:13.330Z,12.70
2018-11-01T14:11:41.764Z,12.10
2018-11-01T14:14:10.500Z,11.30
2018-11-01T14:16:38.897Z,10.90
2018-11-01T14:19:07.304Z,10.90
2018-11-01T14:21:36.397Z,11.10
2018-11-01T14:24:05.245Z,11.00
2018-11-01T14:26:33.694Z,11.20
2018-11-01T14:29:02.114Z,11.30
2018-11-01T14:31:30.588Z,11.10
2018-11-01T14:33:59.101Z,11.20
2018-11-01T14:36:27.518Z,11.10
2018-11-01T14:38:55.919Z,10.70
2018-11-01T14:41:24.370Z,10.20
2018-11-01T14:43:52.800Z,10.00
2018-11-01T14:46:21.220Z,9.80
2018-11-01T14:48:49.697Z,9.70
2018-11-01T14:51:18.122Z,9.70
2018-11-01T14:53:46.998Z,9.70
2018-11-01T14:56:16.685Z,9.70
2018-11-01T14:58:45.227Z,9.70
2018-11-01T15:01:12.139Z,9.70
2018-11-01T15:03:40.613Z,9.60
2018-11-01T15:06:09.053Z,9.50
2018-11-01T15:08:37.486Z,9.40
2018-11-01T15:11:06.037Z,9.40
2018-11-01T15:13:34.490Z,9.40
2018-11-01T15:16:02.908Z,9.40
2018-11-01T15:18:31.418Z,9.40
2018-11-01T15:20:59.853Z,9.40
2018-11-01T15:23:28.313Z,9.40
2018-11-01T15:25:56.836Z,9.30
2018-11-01T15:28:25.288Z,9.20
2018-11-01T15:30:53.805Z,9.00
2018-11-01T15:33:22.364Z,8.90
2018-11-01T15:35:50.716Z,8.80
2018-11-01T15:38:19.152Z,8.70
2018-11-01T15:40:51.804Z,8.60
2018-11-01T15:43:20.258Z,8.60
2018-11-01T15:45:48.701Z,8.50
2018-11-01T15:48:19.360Z,8.40
2018-11-01T15:50:47.876Z,8.30
2018-11-01T15:53:16.363Z,8.20
2018-11-01T15:55:44.758Z,8.20
2018-11-01T15:58:13.193Z,8.10
2018-11-01T16:00:41.642Z,8.10
2018-11-01T16:03:10.092Z,8.00
2018-11-01T16:05:38.521Z,7.90
2018-11-01T16:08:06.960Z,7.90
2018-11-01T16:10:35.397Z,7.80
2018-11-01T16:13:03.857Z,7.70
2018-11-01T16:15:32.302Z,7.70
2018-11-01T16:18:01.045Z,7.70
2018-11-01T16:20:29.458Z,7.60
2018-11-01T16:22:57.937Z,7.50
2018-11-01T16:25:26.369Z,7.40
2018-11-01T16:27:54.855Z,7.40
2018-11-01T16:30:23.310Z,7.30
2018-11-01T16:32:51.780Z,7.30
2018-11-01T16:35:20.225Z,7.30
2018-11-01T16:37:48.701Z,7.30
2018-11-01T16:40:17.121Z,7.30
2018-11-01T16:42:45.683Z,7.20
2018-11-01T16:45:15.407Z,7.20
2018-11-01T16:47:44.067Z,7.10
2018-11-01T16:50:12.554Z,7.10
2018-11-01T16:52:41.907Z,7.10
2018-11-01T16:55:10.598Z,7.00
2018-11-01T16:57:39.100Z,7.10
2018-11-01T17:00:09.316Z,7.10
2018-11-01T17:02:38.061Z,7.00
2018-11-01T17:05:06.966Z,7.10
2018-11-01T17:07:35.463Z,7.10
2018-11-01T17:10:04.178Z,7.00
2018-11-01T17:12:32.622Z,6.90
2018-11-01T17:15:01.106Z,6.90
2018-11-01T17:17:29.579Z,6.90
2018-11-01T17:19:58.030Z,6.80
2018-11-01T17:22:26.474Z,6.90
2018-11-01T17:24:54.932Z,6.90
2018-11-01T17:27:23.378Z,6.90
2018-11-01T17:29:51.833Z,6.80
2018-11-01T17:32:20.331Z,6.80
2018-11-01T17:34:48.776Z,6.70
2018-11-01T17:37:17.261Z,6.70
2018-11-01T17:39:45.702Z,6.80
2018-11-01T17:42:14.164Z,6.80
2018-11-01T17:44:42.606Z,6.60
2018-11-01T17:47:11.099Z,6.60
2018-11-01T17:49:39.546Z,6.60
2018-11-01T17:52:08.004Z,6.60
2018-11-01T17:54:36.443Z,6.60
2018-11-01T17:57:04.933Z,6.70
2018-11-01T17:59:33.382Z,6.70
2018-11-01T18:02:01.842Z,6.60
2018-11-01T18:04:30.293Z,6.60
2018-11-01T18:06:58.743Z,6.60
2018-11-01T18:09:27.203Z,6.60
2018-11-01T18:11:55.639Z,6.60
2018-11-01T18:14:24.177Z,6.80
2018-11-01T18:16:52.546Z,6.80
2018-11-01T18:19:21.020Z,6.70
2018-11-01T18:21:49.469Z,6.80
2018-11-01T18:24:17.961Z,6.80
2018-11-01T18:26:46.386Z,6.70
2018-11-01T18:29:14.853Z,6.80
2018-11-01T18:31:43.345Z,6.80
2018-11-01T18:34:11.803Z,6.70
2018-11-01T18:36:40.232Z,6.70
2018-11-01T18:39:09.326Z,6.70
2018-11-01T18:41:37.654Z,6.90
2018-11-01T18:44:06.161Z,6.90
2018-11-01T18:46:34.886Z,7.00
2018-11-01T18:49:03.390Z,7.00
2018-11-01T18:51:31.834Z,6.90
2018-11-01T18:54:00.340Z,6.90
2018-11-01T18:56:28.767Z,7.00
2018-11-01T18:58:57.255Z,7.10
2018-11-01T19:01:25.710Z,7.20
2018-11-01T19:03:54.165Z,7.20
2018-11-01T19:06:22.602Z,7.20
2018-11-01T19:08:51.057Z,7.10
2018-11-01T19:11:19.502Z,7.10
2018-11-01T19:13:47.982Z,7.10
2018-11-01T19:16:16.413Z,7.10
2018-11-01T19:18:44.924Z,7.00
2018-11-01T19:21:13.354Z,7.00
2018-11-01T19:23:41.790Z,6.90
2018-11-01T19:26:10.245Z,7.00
2018-11-01T19:28:38.683Z,7.00
2018-11-01T19:31:07.147Z,7.10
2018-11-01T19:33:35.642Z,7.20
2018-11-01T19:36:04.154Z,7.30
2018-11-01T19:38:32.589Z,7.30
2018-11-01T19:41:01.060Z,7.30
2018-11-01T19:43:29.473Z,7.40
2018-11-01T19:45:57.935Z,7.50
2018-11-01T19:48:26.479Z,7.50
2018-11-01T19:50:54.853Z,7.50
2018-11-01T19:53:23.274Z,7.50
2018-11-01T19:55:51.733Z,7.60
2018-11-01T19:58:20.159Z,7.80
2018-11-01T20:00:48.590Z,8.00
2018-11-01T20:03:17.018Z,8.10
2018-11-01T20:05:45.620Z,8.30
2018-11-01T20:08:14.056Z,8.60
2018-11-01T20:10:42.467Z,8.60
2018-11-01T20:13:10.881Z,8.50
2018-11-01T20:15:39.319Z,8.50
2018-11-01T20:18:07.749Z,8.50
2018-11-01T20:20:36.192Z,8.50
2018-11-01T20:23:04.722Z,8.40
2018-11-01T20:25:33.191Z,8.50
2018-11-01T20:28:01.568Z,8.80
2018-11-01T20:30:29.998Z,9.10
2018-11-01T20:32:58.443Z,9.20
2018-11-01T20:35:26.876Z,9.40
2018-11-01T20:37:55.358Z,9.60
2018-11-01T20:40:23.870Z,9.60
2018-11-01T20:42:52.293Z,9.80
2018-11-01T20:45:20.748Z,9.80
2018-11-01T20:47:49.196Z,9.90
2018-11-01T20:50:17.675Z,9.90
2018-11-01T20:52:46.046Z,9.90
2018-11-01T20:55:14.518Z,9.80
2018-11-01T20:57:43.021Z,9.90
2018-11-01T21:00:13.174Z,9.90
2018-11-01T21:02:41.634Z,9.90
2018-11-01T21:05:10.237Z,9.90
2018-11-01T21:07:38.545Z,9.90
2018-11-01T21:10:08.054Z,9.90
2018-11-01T21:12:37.066Z,9.90
2018-11-01T21:15:06.604Z,9.90
2018-11-01T21:17:35.073Z,9.90
2018-11-01T21:20:03.561Z,9.90
2018-11-01T21:22:32.030Z,9.90
2018-11-01T21:25:00.454Z,9.90
2018-11-01T21:27:28.927Z,9.90
2018-11-01T21:29:58.003Z,9.90
2018-11-01T21:32:26.478Z,9.90
2018-11-01T21:34:54.909Z,9.80
2018-11-01T21:37:23.364Z,9.90
2018-11-01T21:39:51.826Z,9.90
2018-11-01T21:42:20.286Z,9.90
2018-11-01T21:44:48.714Z,9.90
2018-11-01T21:47:17.173Z,9.90
2018-11-01T21:49:45.598Z,9.90
2018-11-01T21:52:14.013Z,9.90
2018-11-01T21:54:42.441Z,10.00
2018-11-01T21:57:10.901Z,10.00
2018-11-01T21:59:39.329Z,9.90
2018-11-01T22:02:07.799Z,9.90
2018-11-01T22:04:36.261Z,9.80
2018-11-01T22:07:04.739Z,9.70
2018-11-01T22:09:33.162Z,9.70
2018-11-01T22:12:01.653Z,9.60
2018-11-01T22:14:30.038Z,9.60
2018-11-01T22:16:58.497Z,9.50
2018-11-01T22:19:26.917Z,9.50
2018-11-01T22:21:55.381Z,9.40
2018-11-01T22:24:23.807Z,9.40
2018-11-01T22:26:52.220Z,9.30
2018-11-01T22:29:20.672Z,9.20
2018-11-01T22:31:49.146Z,9.10
2018-11-01T22:34:17.629Z,9.10
2018-11-01T22:36:46.122Z,9.00
2018-11-01T22:39:14.596Z,9.00
2018-11-01T22:41:43.002Z,9.00
2018-11-01T22:44:11.449Z,9.00
2018-11-01T22:46:39.877Z,9.10
2018-11-01T22:49:08.305Z,9.10
2018-11-01T22:51:36.887Z,9.20
2018-11-01T22:54:05.627Z,9.20
2018-11-01T22:56:34.026Z,9.30
2018-11-01T22:59:02.502Z,9.30
2018-11-01T23:01:30.950Z,9.30
2018-11-01T23:03:59.402Z,9.40
2018-11-01T23:06:27.825Z,9.40
2018-11-01T23:08:56.274Z,9.40
2018-11-01T23:11:24.713Z,9.40
2018-11-01T23:13:53.182Z,9.40
2018-11-01T23:16:21.615Z,9.40
2018-11-01T23:18:50.105Z,9.40
2018-11-01T23:21:18.533Z,9.50
2018-11-01T23:23:46.993Z,9.50
2018-11-01T23:26:15.496Z,9.50
2018-11-01T23:28:43.862Z,9.50
2018-11-01T23:31:12.525Z,9.50
2018-11-01T23:33:41.026Z,9.60
2018-11-01T23:36:08.667Z,9.60
2018-11-01T23:38:42.378Z,9.60
2018-11-01T23:41:16.148Z,9.60
2018-11-01T23:43:49.810Z,9.70
2018-11-01T23:46:23.457Z,9.70
2018-11-01T23:49:00.333Z,9.70
2018-11-01T23:51:28.761Z,9.70
2018-11-01T23:53:57.220Z,9.70
2018-11-01T23:56:25.645Z,9.70
2018-11-01T23:58:54.102Z,9.70
